sensor_id;sensor_type;location;lat;lon;timestamp;pressure;altitude;pressure_sealevel;temperature
20490;BMP280;10403;54.092;12.122;2022-08-01T00:00:37;101392.28;;;23.22
20490;BMP280;10403;54.092;12.122;2022-08-01T00:03:05;101399.34;;;23.23
20490;BMP280;10403;54.092;12.122;2022-08-01T00:05:32;101401.09;;;23.24
20490;BMP280;10403;54.092;12.122;2022-08-01T00:07:59;101389.03;;;23.17
20490;BMP280;10403;54.092;12.122;2022-08-01T00:10:27;101398.50;;;23.23
20490;BMP280;10403;54.092;12.122;2022-08-01T00:12:54;101389.13;;;23.16
20490;BMP280;10403;54.092;12.122;2022-08-01T00:15:21;101401.25;;;23.21
20490;BMP280;10403;54.092;12.122;2022-08-01T00:17:48;101394.28;;;23.19
20490;BMP280;10403;54.092;12.122;2022-08-01T00:20:15;101384.88;;;23.12
20490;BMP280;10403;54.092;12.122;2022-08-01T00:22:42;101394.38;;;23.17
20490;BMP280;10403;54.092;12.122;2022-08-01T00:25:09;101394.44;;;23.16
20490;BMP280;10403;54.092;12.122;2022-08-01T00:27:36;101392.03;;;23.11
20490;BMP280;10403;54.092;12.122;2022-08-01T00:30:05;101384.03;;;23.11
20490;BMP280;10403;54.092;12.122;2022-08-01T00:32:42;101385.66;;;23.14
20490;BMP280;10403;54.092;12.122;2022-08-01T00:35:10;101387.66;;;23.10
20490;BMP280;10403;54.092;12.122;2022-08-01T00:37:37;101368.53;;;23.02
20490;BMP280;10403;54.092;12.122;2022-08-01T00:40:06;101377.16;;;23.07
20490;BMP280;10403;54.092;12.122;2022-08-01T00:42:33;101377.22;;;23.06
20490;BMP280;10403;54.092;12.122;2022-08-01T00:45:06;101364.91;;;23.03
20490;BMP280;10403;54.092;12.122;2022-08-01T00:47:33;101366.72;;;23.03
20490;BMP280;10403;54.092;12.122;2022-08-01T00:50:04;101355.19;;;23.02
20490;BMP280;10403;54.092;12.122;2022-08-01T00:52:33;101355.38;;;22.99
20490;BMP280;10403;54.092;12.122;2022-08-01T00:55:01;101345.88;;;22.94
20490;BMP280;10403;54.092;12.122;2022-08-01T00:57:29;101343.41;;;22.91
20490;BMP280;10403;54.092;12.122;2022-08-01T01:00:17;101348.84;;;22.89
20490;BMP280;10403;54.092;12.122;2022-08-01T01:02:53;101341.94;;;22.85
20490;BMP280;10403;54.092;12.122;2022-08-01T01:05:20;101335.81;;;22.83
20490;BMP280;10403;54.092;12.122;2022-08-01T01:08:08;101332.47;;;22.79
20490;BMP280;10403;54.092;12.122;2022-08-01T01:10:53;101328.00;;;22.80
20490;BMP280;10403;54.092;12.122;2022-08-01T01:13:34;101328.00;;;22.80
20490;BMP280;10403;54.092;12.122;2022-08-01T01:16:19;101326.34;;;22.77
20490;BMP280;10403;54.092;12.122;2022-08-01T01:18:57;101330.47;;;22.83
20490;BMP280;10403;54.092;12.122;2022-08-01T01:21:39;101333.75;;;22.88
20490;BMP280;10403;54.092;12.122;2022-08-01T01:24:36;101324.97;;;22.86
20490;BMP280;10403;54.092;12.122;2022-08-01T01:30:13;101326.00;;;22.83
20490;BMP280;10403;54.092;12.122;2022-08-01T01:32:48;101332.97;;;22.86
20490;BMP280;10403;54.092;12.122;2022-08-01T01:35:34;101331.19;;;22.86
20490;BMP280;10403;54.092;12.122;2022-08-01T01:38:14;101328.50;;;22.86
20490;BMP280;10403;54.092;12.122;2022-08-01T01:40:45;101329.53;;;22.84
20490;BMP280;10403;54.092;12.122;2022-08-01T01:43:15;101330.31;;;22.86
20490;BMP280;10403;54.092;12.122;2022-08-01T01:45:45;101326.94;;;22.82
20490;BMP280;10403;54.092;12.122;2022-08-01T01:48:17;101308.75;;;22.73
20490;BMP280;10403;54.092;12.122;2022-08-01T01:50:51;101321.97;;;22.76
20490;BMP280;10403;54.092;12.122;2022-08-01T01:53:21;101320.00;;;22.80
20490;BMP280;10403;54.092;12.122;2022-08-01T01:55:53;101324.47;;;22.79
20490;BMP280;10403;54.092;12.122;2022-08-01T01:58:22;101322.75;;;22.78
20490;BMP280;10403;54.092;12.122;2022-08-01T02:00:53;101329.88;;;22.78
20490;BMP280;10403;54.092;12.122;2022-08-01T02:03:23;101328.16;;;22.77
20490;BMP280;10403;54.092;12.122;2022-08-01T02:05:53;101330.66;;;22.80
20490;BMP280;10403;54.092;12.122;2022-08-01T02:08:23;101319.41;;;22.73
20490;BMP280;10403;54.092;12.122;2022-08-01T02:10:53;101321.88;;;22.78
20490;BMP280;10403;54.092;12.122;2022-08-01T02:13:59;101323.78;;;22.76
20490;BMP280;10403;54.092;12.122;2022-08-01T02:16:33;101322.09;;;22.73
20490;BMP280;10403;54.092;12.122;2022-08-01T02:19:03;101328.28;;;22.74
20490;BMP280;10403;54.092;12.122;2022-08-01T02:21:38;101308.25;;;22.67
20490;BMP280;10403;54.092;12.122;2022-08-01T02:24:14;101322.19;;;22.72
20490;BMP280;10403;54.092;12.122;2022-08-01T02:26:49;101319.41;;;22.73
20490;BMP280;10403;54.092;12.122;2022-08-01T02:29:29;101318.56;;;22.73
20490;BMP280;10403;54.092;12.122;2022-08-01T02:31:59;101316.75;;;22.73
20490;BMP280;10403;54.092;12.122;2022-08-01T02:34:29;101308.16;;;22.68
20490;BMP280;10403;54.092;12.122;2022-08-01T02:37:00;101322.19;;;22.72
20490;BMP280;10403;54.092;12.122;2022-08-01T02:39:30;101315.13;;;22.71
20490;BMP280;10403;54.092;12.122;2022-08-01T02:42:05;101315.13;;;22.71
20490;BMP280;10403;54.092;12.122;2022-08-01T02:44:38;101313.41;;;22.70
20490;BMP280;10403;54.092;12.122;2022-08-01T02:47:06;101315.47;;;22.65
20490;BMP280;10403;54.092;12.122;2022-08-01T02:49:44;101320.72;;;22.66
20490;BMP280;10403;54.092;12.122;2022-08-01T02:52:17;101310.91;;;22.67
20490;BMP280;10403;54.092;12.122;2022-08-01T02:54:50;101307.53;;;22.63
20490;BMP280;10403;54.092;12.122;2022-08-01T02:57:20;101317.03;;;22.69
20490;BMP280;10403;54.092;12.122;2022-08-01T02:59:53;101314.28;;;22.70
20490;BMP280;10403;54.092;12.122;2022-08-01T03:02:23;101312.47;;;22.71
20490;BMP280;10403;54.092;12.122;2022-08-01T03:04:53;101308.16;;;22.68
20490;BMP280;10403;54.092;12.122;2022-08-01T03:07:23;101313.22;;;22.73
20490;BMP280;10403;54.092;12.122;2022-08-01T03:10:02;101326.56;;;22.73
20490;BMP280;10403;54.092;12.122;2022-08-01T03:12:33;101326.47;;;22.74
20490;BMP280;10403;54.092;12.122;2022-08-01T03:15:03;101320.16;;;22.77
20490;BMP280;10403;54.092;12.122;2022-08-01T03:17:32;101322.94;;;22.74
20490;BMP280;10403;54.092;12.122;2022-08-01T03:20:03;101317.41;;;22.78
20490;BMP280;10403;54.092;12.122;2022-08-01T03:22:33;101314.19;;;22.72
20490;BMP280;10403;54.092;12.122;2022-08-01T03:25:02;101323.69;;;22.77
20490;BMP280;10403;54.092;12.122;2022-08-01T03:27:31;101309.88;;;22.69
20490;BMP280;10403;54.092;12.122;2022-08-01T03:30:04;101312.16;;;22.77
20490;BMP280;10403;54.092;12.122;2022-08-01T03:32:31;101321.97;;;22.76
20490;BMP280;10403;54.092;12.122;2022-08-01T03:34:58;101328.94;;;22.79
20490;BMP280;10403;54.092;12.122;2022-08-01T03:37:42;101315.59;;;22.79
20490;BMP280;10403;54.092;12.122;2022-08-01T03:40:38;101329.81;;;22.79
20490;BMP280;10403;54.092;12.122;2022-08-01T03:43:16;101329.88;;;22.78
20490;BMP280;10403;54.092;12.122;2022-08-01T03:45:50;101329.03;;;22.77
20490;BMP280;10403;54.092;12.122;2022-08-01T03:48:22;101329.22;;;22.73
20490;BMP280;10403;54.092;12.122;2022-08-01T03:50:52;101322.28;;;22.70
20490;BMP280;10403;54.092;12.122;2022-08-01T03:53:30;101331.16;;;22.71
20490;BMP280;10403;54.092;12.122;2022-08-01T03:56:00;101320.78;;;22.65
20490;BMP280;10403;54.092;12.122;2022-08-01T03:58:30;101325.97;;;22.68
20490;BMP280;10403;54.092;12.122;2022-08-01T04:00:58;101325.28;;;22.64
20490;BMP280;10403;54.092;12.122;2022-08-01T04:03:26;101319.41;;;22.58
20490;BMP280;10403;54.092;12.122;2022-08-01T04:05:53;101314.00;;;22.59
20490;BMP280;10403;54.092;12.122;2022-08-01T04:08:20;101329.06;;;22.60
20490;BMP280;10403;54.092;12.122;2022-08-01T04:10:55;101323.91;;;22.57
20490;BMP280;10403;54.092;12.122;2022-08-01T04:13:22;101315.97;;;22.56
20490;BMP280;10403;54.092;12.122;2022-08-01T04:15:49;101327.06;;;22.64
20490;BMP280;10403;54.092;12.122;2022-08-01T04:18:16;101329.75;;;22.64
20490;BMP280;10403;54.092;12.122;2022-08-01T04:20:43;101327.25;;;22.61
20490;BMP280;10403;54.092;12.122;2022-08-01T04:23:11;101326.13;;;22.65
20490;BMP280;10403;54.092;12.122;2022-08-01T04:25:40;101323.03;;;22.57
20490;BMP280;10403;54.092;12.122;2022-08-01T04:28:12;101334.31;;;22.62
20490;BMP280;10403;54.092;12.122;2022-08-01T04:30:46;101338.00;;;22.59
20490;BMP280;10403;54.092;12.122;2022-08-01T04:33:15;101334.47;;;22.59
20490;BMP280;10403;54.092;12.122;2022-08-01T04:35:47;101338.88;;;22.60
20490;BMP280;10403;54.092;12.122;2022-08-01T04:38:34;101342.31;;;22.62
20490;BMP280;10403;54.092;12.122;2022-08-01T04:41:06;101338.69;;;22.63
20490;BMP280;10403;54.092;12.122;2022-08-01T04:43:38;101340.41;;;22.64
20490;BMP280;10403;54.092;12.122;2022-08-01T04:46:09;101333.63;;;22.58
20490;BMP280;10403;54.092;12.122;2022-08-01T04:48:38;101340.75;;;22.58
20490;BMP280;10403;54.092;12.122;2022-08-01T04:51:17;101338.94;;;22.58
20490;BMP280;10403;54.092;12.122;2022-08-01T04:53:49;101333.69;;;22.57
20490;BMP280;10403;54.092;12.122;2022-08-01T04:56:20;101344.13;;;22.61
20490;BMP280;10403;54.092;12.122;2022-08-01T04:58:48;101353.00;;;22.62
20490;BMP280;10403;54.092;12.122;2022-08-01T05:01:15;101339.03;;;22.57
20490;BMP280;10403;54.092;12.122;2022-08-01T05:03:42;101349.53;;;22.60
20490;BMP280;10403;54.092;12.122;2022-08-01T05:06:10;101346.59;;;22.64
20490;BMP280;10403;54.092;12.122;2022-08-01T05:08:37;101350.22;;;22.63
20490;BMP280;10403;54.092;12.122;2022-08-01T05:11:04;101357.28;;;22.64
20490;BMP280;10403;54.092;12.122;2022-08-01T05:13:31;101357.28;;;22.64
20490;BMP280;10403;54.092;12.122;2022-08-01T05:15:58;101358.06;;;22.66
20490;BMP280;10403;54.092;12.122;2022-08-01T05:18:25;101362.44;;;22.67
20490;BMP280;10403;54.092;12.122;2022-08-01T05:20:54;101358.31;;;22.62
20490;BMP280;10403;54.092;12.122;2022-08-01T05:23:22;101361.75;;;22.64
20490;BMP280;10403;54.092;12.122;2022-08-01T05:26:10;101361.75;;;22.64
20490;BMP280;10403;54.092;12.122;2022-08-01T05:28:41;101360.66;;;22.68
20490;BMP280;10403;54.092;12.122;2022-08-01T05:31:08;101363.16;;;22.71
20490;BMP280;10403;54.092;12.122;2022-08-01T05:33:35;101353.50;;;22.68
20490;BMP280;10403;54.092;12.122;2022-08-01T05:36:03;101359.72;;;22.69
20490;BMP280;10403;54.092;12.122;2022-08-01T05:38:32;101375.41;;;22.75
20490;BMP280;10403;54.092;12.122;2022-08-01T05:40:59;101370.97;;;22.74
20490;BMP280;10403;54.092;12.122;2022-08-01T05:43:26;101378.97;;;22.74
20490;BMP280;10403;54.092;12.122;2022-08-01T05:45:55;101377.34;;;22.71
20490;BMP280;10403;54.092;12.122;2022-08-01T05:48:22;101377.44;;;22.70
20490;BMP280;10403;54.092;12.122;2022-08-01T05:50:49;101382.94;;;22.67
20490;BMP280;10403;54.092;12.122;2022-08-01T05:53:20;101373.53;;;22.60
20490;BMP280;10403;54.092;12.122;2022-08-01T05:55:47;101386.88;;;22.60
20490;BMP280;10403;54.092;12.122;2022-08-01T05:58:14;101392.22;;;22.60
20490;BMP280;10403;54.092;12.122;2022-08-01T06:00:41;101379.81;;;22.59
20490;BMP280;10403;54.092;12.122;2022-08-01T06:03:08;101380.53;;;22.62
20490;BMP280;10403;54.092;12.122;2022-08-01T06:05:35;101376.38;;;22.57
20490;BMP280;10403;54.092;12.122;2022-08-01T06:08:03;101372.91;;;22.55
20490;BMP280;10403;54.092;12.122;2022-08-01T06:10:30;101394.63;;;22.64
20490;BMP280;10403;54.092;12.122;2022-08-01T06:12:57;101382.94;;;22.67
20490;BMP280;10403;54.092;12.122;2022-08-01T06:15:24;101382.22;;;22.63
20490;BMP280;10403;54.092;12.122;2022-08-01T06:17:51;101375.94;;;22.64
20490;BMP280;10403;54.092;12.122;2022-08-01T06:20:18;101388.25;;;22.67
20490;BMP280;10403;54.092;12.122;2022-08-01T06:22:45;101388.03;;;22.71
20490;BMP280;10403;54.092;12.122;2022-08-01T06:25:19;101384.50;;;22.71
20490;BMP280;10403;54.092;12.122;2022-08-01T06:27:47;101390.59;;;22.73
20490;BMP280;10403;54.092;12.122;2022-08-01T06:30:15;101390.84;;;22.68
20490;BMP280;10403;54.092;12.122;2022-08-01T06:32:42;101389.28;;;22.64
20490;BMP280;10403;54.092;12.122;2022-08-01T06:35:09;101398.16;;;22.65
20490;BMP280;10403;54.092;12.122;2022-08-01T06:37:36;101393.94;;;22.61
20490;BMP280;10403;54.092;12.122;2022-08-01T06:40:07;101402.03;;;22.59
20490;BMP280;10403;54.092;12.122;2022-08-01T06:42:39;101409.75;;;22.64
20490;BMP280;10403;54.092;12.122;2022-08-01T06:45:09;101397.34;;;22.63
20490;BMP280;10403;54.092;12.122;2022-08-01T06:47:38;101414.59;;;22.73
20490;BMP280;10403;54.092;12.122;2022-08-01T06:50:07;101420.78;;;22.73
20490;BMP280;10403;54.092;12.122;2022-08-01T06:52:37;101416.50;;;22.71
20490;BMP280;10403;54.092;12.122;2022-08-01T06:55:05;101420.63;;;22.61
20490;BMP280;10403;54.092;12.122;2022-08-01T06:57:32;101427.31;;;22.52
20490;BMP280;10403;54.092;12.122;2022-08-01T07:00:05;101430.19;;;22.47
20490;BMP280;10403;54.092;12.122;2022-08-01T07:02:35;101433.88;;;22.45
20490;BMP280;10403;54.092;12.122;2022-08-01T07:05:04;101423.28;;;22.43
20490;BMP280;10403;54.092;12.122;2022-08-01T07:07:31;101432.06;;;22.45
20490;BMP280;10403;54.092;12.122;2022-08-01T07:09:59;101440.16;;;22.44
20490;BMP280;10403;54.092;12.122;2022-08-01T07:12:26;101434.81;;;22.44
20490;BMP280;10403;54.092;12.122;2022-08-01T07:14:53;101430.69;;;22.38
20490;BMP280;10403;54.092;12.122;2022-08-01T07:17:20;101431.53;;;22.39
20490;BMP280;10403;54.092;12.122;2022-08-01T07:19:47;101432.16;;;22.44
20490;BMP280;10403;54.092;12.122;2022-08-01T07:22:14;101441.00;;;22.44
20490;BMP280;10403;54.092;12.122;2022-08-01T07:24:49;101415.78;;;22.34
20490;BMP280;10403;54.092;12.122;2022-08-01T07:27:20;101445.75;;;22.39
20490;BMP280;10403;54.092;12.122;2022-08-01T07:29:53;101443.38;;;22.33
20490;BMP280;10403;54.092;12.122;2022-08-01T07:32:21;101454.22;;;22.30
20490;BMP280;10403;54.092;12.122;2022-08-01T07:34:48;101455.44;;;22.23
20490;BMP280;10403;54.092;12.122;2022-08-01T07:37:16;101456.50;;;22.21
20490;BMP280;10403;54.092;12.122;2022-08-01T07:40:04;101456.41;;;22.22
20490;BMP280;10403;54.092;12.122;2022-08-01T07:42:32;101452.72;;;22.25
20490;BMP280;10403;54.092;12.122;2022-08-01T07:44:59;101461.75;;;22.22
20490;BMP280;10403;54.092;12.122;2022-08-01T07:47:26;101468.97;;;22.20
20490;BMP280;10403;54.092;12.122;2022-08-01T07:50:00;101479.38;;;22.25
20490;BMP280;10403;54.092;12.122;2022-08-01T07:52:27;101478.34;;;22.27
20490;BMP280;10403;54.092;12.122;2022-08-01T07:54:55;101479.16;;;22.29
20490;BMP280;10403;54.092;12.122;2022-08-01T07:57:24;101484.16;;;22.35
20490;BMP280;10403;54.092;12.122;2022-08-01T07:59:51;101481.00;;;22.44
20490;BMP280;10403;54.092;12.122;2022-08-01T08:02:18;101485.41;;;22.45
20490;BMP280;10403;54.092;12.122;2022-08-01T08:04:46;101495.53;;;22.39
20490;BMP280;10403;54.092;12.122;2022-08-01T08:07:15;101495.84;;;22.33
20490;BMP280;10403;54.092;12.122;2022-08-01T08:09:42;101497.19;;;22.41
20490;BMP280;10403;54.092;12.122;2022-08-01T08:12:10;101489.72;;;22.48
20490;BMP280;10403;54.092;12.122;2022-08-01T08:14:37;101500.38;;;22.48
20490;BMP280;10403;54.092;12.122;2022-08-01T08:17:05;101484.63;;;22.43
20490;BMP280;10403;54.092;12.122;2022-08-01T08:19:32;101501.25;;;22.48
20490;BMP280;10403;54.092;12.122;2022-08-01T08:22:07;101497.47;;;22.52
20490;BMP280;10403;54.092;12.122;2022-08-01T08:24:36;101509.56;;;22.60
20490;BMP280;10403;54.092;12.122;2022-08-01T08:27:13;101507.75;;;22.60
20490;BMP280;10403;54.092;12.122;2022-08-01T08:29:40;101508.44;;;22.64
20490;BMP280;10403;54.092;12.122;2022-08-01T08:32:07;101513.63;;;22.67
20490;BMP280;10403;54.092;12.122;2022-08-01T08:34:35;101510.09;;;22.66
20490;BMP280;10403;54.092;12.122;2022-08-01T08:37:02;101515.44;;;22.66
20490;BMP280;10403;54.092;12.122;2022-08-01T08:39:30;101511.28;;;22.61
20490;BMP280;10403;54.092;12.122;2022-08-01T08:42:09;101517.00;;;22.70
20490;BMP280;10403;54.092;12.122;2022-08-01T08:44:40;101522.50;;;22.67
20490;BMP280;10403;54.092;12.122;2022-08-01T08:47:12;101520.63;;;22.69
20490;BMP280;10403;54.092;12.122;2022-08-01T08:49:46;101528.25;;;22.77
20490;BMP280;10403;54.092;12.122;2022-08-01T08:52:18;101536.97;;;22.80
20490;BMP280;10403;54.092;12.122;2022-08-01T08:54:47;101538.44;;;22.86
20490;BMP280;10403;54.092;12.122;2022-08-01T08:57:15;101532.38;;;22.82
20490;BMP280;10403;54.092;12.122;2022-08-01T08:59:46;101534.97;;;22.84
20490;BMP280;10403;54.092;12.122;2022-08-01T09:02:13;101535.34;;;22.94
20490;BMP280;10403;54.092;12.122;2022-08-01T09:04:41;101537.44;;;23.04
20490;BMP280;10403;54.092;12.122;2022-08-01T09:07:08;101546.00;;;23.11
20490;BMP280;10403;54.092;12.122;2022-08-01T09:09:38;101536.84;;;22.99
20490;BMP280;10403;54.092;12.122;2022-08-01T09:12:08;101550.59;;;22.92
20490;BMP280;10403;54.092;12.122;2022-08-01T09:14:45;101560.56;;;22.88
20490;BMP280;10403;54.092;12.122;2022-08-01T09:17:14;101555.97;;;22.73
20490;BMP280;10403;54.092;12.122;2022-08-01T09:19:46;101564.16;;;22.70
20490;BMP280;10403;54.092;12.122;2022-08-01T09:22:24;101555.38;;;22.68
20490;BMP280;10403;54.092;12.122;2022-08-01T09:25:06;101561.13;;;22.77
20490;BMP280;10403;54.092;12.122;2022-08-01T09:27:38;101562.97;;;22.93
20490;BMP280;10403;54.092;12.122;2022-08-01T09:30:15;101576.81;;;23.01
20490;BMP280;10403;54.092;12.122;2022-08-01T09:33:01;101566.22;;;22.99
20490;BMP280;10403;54.092;12.122;2022-08-01T09:35:55;101580.56;;;22.97
20490;BMP280;10403;54.092;12.122;2022-08-01T09:38:25;101572.03;;;22.90
20490;BMP280;10403;54.092;12.122;2022-08-01T09:40:59;101572.19;;;22.87
20490;BMP280;10403;54.092;12.122;2022-08-01T09:43:30;101576.44;;;22.91
20490;BMP280;10403;54.092;12.122;2022-08-01T09:46:03;101587.22;;;23.05
20490;BMP280;10403;54.092;12.122;2022-08-01T09:49:01;101586.34;;;23.05
20490;BMP280;10403;54.092;12.122;2022-08-01T09:51:38;101596.66;;;22.95
20490;BMP280;10403;54.092;12.122;2022-08-01T09:54:32;101590.38;;;22.96
20490;BMP280;10403;54.092;12.122;2022-08-01T09:57:16;101598.03;;;23.02
20490;BMP280;10403;54.092;12.122;2022-08-01T09:59:51;101604.97;;;23.06
20490;BMP280;10403;54.092;12.122;2022-08-01T10:02:39;101612.03;;;23.07
20490;BMP280;10403;54.092;12.122;2022-08-01T10:05:10;101609.22;;;23.10
20490;BMP280;10403;54.092;12.122;2022-08-01T10:07:59;101612.03;;;23.07
20490;BMP280;10403;54.092;12.122;2022-08-01T10:10:34;101596.97;;;23.06
20490;BMP280;10403;54.092;12.122;2022-08-01T10:13:04;101610.16;;;23.09
20490;BMP280;10403;54.092;12.122;2022-08-01T10:15:35;101621.84;;;23.07
20490;BMP280;10403;54.092;12.122;2022-08-01T10:18:06;101622.06;;;23.02
20490;BMP280;10403;54.092;12.122;2022-08-01T10:20:51;101621.72;;;22.74
20490;BMP280;10403;54.092;12.122;2022-08-01T10:23:24;101630.84;;;22.70
20490;BMP280;10403;54.092;12.122;2022-08-01T10:26:07;101634.66;;;22.64
20490;BMP280;10403;54.092;12.122;2022-08-01T10:28:38;101629.25;;;22.48
20490;BMP280;10403;54.092;12.122;2022-08-01T10:31:08;101629.91;;;22.35
20490;BMP280;10403;54.092;12.122;2022-08-01T10:33:39;101646.97;;;22.32
20490;BMP280;10403;54.092;12.122;2022-08-01T10:36:20;101647.09;;;22.29
20490;BMP280;10403;54.092;12.122;2022-08-01T10:38:49;101637.94;;;22.16
20490;BMP280;10403;54.092;12.122;2022-08-01T10:41:18;101640.63;;;22.16
20490;BMP280;10403;54.092;12.122;2022-08-01T10:43:46;101640.41;;;22.21
20490;BMP280;10403;54.092;12.122;2022-08-01T10:46:13;101641.97;;;22.25
20490;BMP280;10403;54.092;12.122;2022-08-01T10:49:00;101639.72;;;22.34
20490;BMP280;10403;54.092;12.122;2022-08-01T10:51:28;101644.91;;;22.37
20490;BMP280;10403;54.092;12.122;2022-08-01T10:54:16;101643.66;;;22.44
20490;BMP280;10403;54.092;12.122;2022-08-01T10:56:48;101643.13;;;22.38
20490;BMP280;10403;54.092;12.122;2022-08-01T10:59:27;101654.09;;;22.32
20490;BMP280;10403;54.092;12.122;2022-08-01T11:02:30;101656.97;;;22.27
20490;BMP280;10403;54.092;12.122;2022-08-01T11:05:12;101653.50;;;22.25
20490;BMP280;10403;54.092;12.122;2022-08-01T11:07:48;101651.06;;;22.21
20490;BMP280;10403;54.092;12.122;2022-08-01T11:10:41;101673.34;;;22.20
20490;BMP280;10403;54.092;12.122;2022-08-01T11:13:12;101657.06;;;22.07
20490;BMP280;10403;54.092;12.122;2022-08-01T11:15:41;101676.56;;;22.07
20490;BMP280;10403;54.092;12.122;2022-08-01T11:18:31;101669.97;;;21.96
20490;BMP280;10403;54.092;12.122;2022-08-01T11:21:01;101678.47;;;21.85
20490;BMP280;10403;54.092;12.122;2022-08-01T11:23:51;101660.72;;;21.65
20490;BMP280;10403;54.092;12.122;2022-08-01T11:26:23;101675.34;;;21.75
20490;BMP280;10403;54.092;12.122;2022-08-01T11:29:17;101685.75;;;21.82
20490;BMP280;10403;54.092;12.122;2022-08-01T11:31:49;101707.06;;;21.82
20490;BMP280;10403;54.092;12.122;2022-08-01T11:34:17;101699.69;;;21.68
20490;BMP280;10403;54.092;12.122;2022-08-01T11:36:44;101687.78;;;21.56
20490;BMP280;10403;54.092;12.122;2022-08-01T11:39:29;101695.66;;;21.59
20490;BMP280;10403;54.092;12.122;2022-08-01T11:42:18;101698.13;;;21.64
20490;BMP280;10403;54.092;12.122;2022-08-01T11:44:50;101708.94;;;21.79
20490;BMP280;10403;54.092;12.122;2022-08-01T11:47:45;101719.81;;;21.94
20490;BMP280;10403;54.092;12.122;2022-08-01T11:50:32;101714.25;;;22.00
20490;BMP280;10403;54.092;12.122;2022-08-01T11:53:09;101719.78;;;22.14
20490;BMP280;10403;54.092;12.122;2022-08-01T11:55:46;101731.03;;;22.21
20490;BMP280;10403;54.092;12.122;2022-08-01T11:58:25;101740.53;;;22.26
20490;BMP280;10403;54.092;12.122;2022-08-01T12:00:57;101731.41;;;22.32
20490;BMP280;10403;54.092;12.122;2022-08-01T12:03:27;101738.97;;;22.41
20490;BMP280;10403;54.092;12.122;2022-08-01T12:06:00;101736.06;;;22.45
20490;BMP280;10403;54.092;12.122;2022-08-01T12:08:31;101731.91;;;22.40
20490;BMP280;10403;54.092;12.122;2022-08-01T12:11:04;101731.31;;;22.33
20490;BMP280;10403;54.092;12.122;2022-08-01T12:13:43;101731.66;;;22.44
20490;BMP280;10403;54.092;12.122;2022-08-01T12:16:12;101728.56;;;22.53
20490;BMP280;10403;54.092;12.122;2022-08-01T12:18:43;101722.16;;;22.39
20490;BMP280;10403;54.092;12.122;2022-08-01T12:21:10;101746.47;;;22.51
20490;BMP280;10403;54.092;12.122;2022-08-01T12:23:38;101741.81;;;22.55
20490;BMP280;10403;54.092;12.122;2022-08-01T12:26:05;101738.88;;;22.61
20490;BMP280;10403;54.092;12.122;2022-08-01T12:28:39;101747.63;;;22.63
20490;BMP280;10403;54.092;12.122;2022-08-01T12:31:07;101746.59;;;22.48
20490;BMP280;10403;54.092;12.122;2022-08-01T12:33:37;101722.91;;;22.42
20490;BMP280;10403;54.092;12.122;2022-08-01T12:36:06;101730.53;;;22.50
20490;BMP280;10403;54.092;12.122;2022-08-01T12:38:33;101747.94;;;22.57
20490;BMP280;10403;54.092;12.122;2022-08-01T12:41:01;101738.94;;;22.60
20490;BMP280;10403;54.092;12.122;2022-08-01T12:43:31;101733.84;;;22.72
20490;BMP280;10403;54.092;12.122;2022-08-01T12:46:00;101738.47;;;22.87
20490;BMP280;10403;54.092;12.122;2022-08-01T12:48:30;101740.28;;;22.87
20490;BMP280;10403;54.092;12.122;2022-08-01T12:50:58;101738.91;;;22.97
20490;BMP280;10403;54.092;12.122;2022-08-01T12:53:28;101732.28;;;23.04
20490;BMP280;10403;54.092;12.122;2022-08-01T12:56:09;101736.22;;;23.14
20490;BMP280;10403;54.092;12.122;2022-08-01T12:58:38;101743.84;;;23.22
20490;BMP280;10403;54.092;12.122;2022-08-01T13:01:09;101737.94;;;23.33
20490;BMP280;10403;54.092;12.122;2022-08-01T13:03:37;101741.09;;;23.41
20490;BMP280;10403;54.092;12.122;2022-08-01T13:06:14;101750.69;;;23.45
20490;BMP280;10403;54.092;12.122;2022-08-01T13:08:44;101741.81;;;23.44
20490;BMP280;10403;54.092;12.122;2022-08-01T13:11:14;101747.88;;;23.48
20490;BMP280;10403;54.092;12.122;2022-08-01T13:13:49;101749.59;;;23.49
20490;BMP280;10403;54.092;12.122;2022-08-01T13:16:21;101751.63;;;23.44
20490;BMP280;10403;54.092;12.122;2022-08-01T13:19:00;101767.38;;;23.50
20490;BMP280;10403;54.092;12.122;2022-08-01T13:21:29;101758.84;;;23.42
20490;BMP280;10403;54.092;12.122;2022-08-01T13:24:31;101750.69;;;23.28
20490;BMP280;10403;54.092;12.122;2022-08-01T13:27:01;101750.38;;;23.16
20490;BMP280;10403;54.092;12.122;2022-08-01T13:29:39;101741.50;;;23.16
20490;BMP280;10403;54.092;12.122;2022-08-01T13:32:21;101747.56;;;23.19
20490;BMP280;10403;54.092;12.122;2022-08-01T13:35:06;101756.50;;;23.18
20490;BMP280;10403;54.092;12.122;2022-08-01T13:37:35;101762.91;;;23.14
20490;BMP280;10403;54.092;12.122;2022-08-01T13:40:07;101759.94;;;23.03
20490;BMP280;10403;54.092;12.122;2022-08-01T13:42:35;101756.63;;;22.98
20490;BMP280;10403;54.092;12.122;2022-08-01T13:45:04;101754.44;;;23.06
20490;BMP280;10403;54.092;12.122;2022-08-01T13:47:43;101751.91;;;23.03
20490;BMP280;10403;54.092;12.122;2022-08-01T13:50:31;101764.03;;;23.10
20490;BMP280;10403;54.092;12.122;2022-08-01T13:52:59;101762.38;;;23.08
20490;BMP280;10403;54.092;12.122;2022-08-01T13:55:26;101773.75;;;23.11
20490;BMP280;10403;54.092;12.122;2022-08-01T13:57:59;101759.38;;;23.14
20490;BMP280;10403;54.092;12.122;2022-08-01T14:00:26;101759.19;;;23.18
20490;BMP280;10403;54.092;12.122;2022-08-01T14:02:54;101763.72;;;23.16
20490;BMP280;10403;54.092;12.122;2022-08-01T14:05:21;101750.19;;;23.02
20490;BMP280;10403;54.092;12.122;2022-08-01T14:07:48;101775.81;;;23.06
20490;BMP280;10403;54.092;12.122;2022-08-01T14:10:23;101760.97;;;23.01
20490;BMP280;10403;54.092;12.122;2022-08-01T14:12:50;101770.53;;;23.05
20490;BMP280;10403;54.092;12.122;2022-08-01T14:15:17;101762.44;;;23.06